createdAt,value
2022-11-18T00:00:06.814Z,46.29
2022-11-18T00:00:39.101Z,46.26
2022-11-18T00:01:16.115Z,46.10
2022-11-18T00:01:48.536Z,46.51
2022-11-18T00:02:20.822Z,46.30
2022-11-18T00:02:55.808Z,46.02
2022-11-18T00:03:28.091Z,46.44
2022-11-18T00:04:00.482Z,46.38
2022-11-18T00:04:35.477Z,46.35
2022-11-18T00:05:07.828Z,46.47
2022-11-18T00:05:40.154Z,46.41
2022-11-18T00:06:16.714Z,46.11
2022-11-18T00:06:50.653Z,46.05
2022-11-18T00:07:22.990Z,46.05
2022-11-18T00:07:58.418Z,46.45
2022-11-18T00:08:33.605Z,46.50
2022-11-18T00:09:06.349Z,46.32
2022-11-18T00:09:38.650Z,46.36
2022-11-18T00:10:13.606Z,46.48
2022-11-18T00:10:45.973Z,46.03
2022-11-18T00:11:34.322Z,46.09
2022-11-18T00:12:21.639Z,46.44
2022-11-18T00:13:23.829Z,46.31
2022-11-18T00:14:13.858Z,46.21
2022-11-18T00:14:49.710Z,46.35
2022-11-18T00:15:23.506Z,46.02
2022-11-18T00:16:01.291Z,46.12
2022-11-18T00:16:36.259Z,46.28
2022-11-18T00:17:08.560Z,46.13
2022-11-18T00:17:43.481Z,46.24
2022-11-18T00:18:15.781Z,46.29
2022-11-18T00:18:48.093Z,46.38
2022-11-18T00:19:21.733Z,46.17
2022-11-18T00:19:56.678Z,46.48
2022-11-18T00:20:29.021Z,46.21
2022-11-18T00:21:02.324Z,46.21
2022-11-18T00:21:37.451Z,46.27
2022-11-18T00:22:13.200Z,46.43
2022-11-18T00:22:49.498Z,45.95
2022-11-18T00:23:24.421Z,46.09
2022-11-18T00:23:56.708Z,46.05
2022-11-18T00:24:31.946Z,46.19
2022-11-18T00:25:04.575Z,46.08
2022-11-18T00:25:36.866Z,46.01
2022-11-18T00:26:11.136Z,46.06
2022-11-18T00:26:46.065Z,46.36
2022-11-18T00:27:18.825Z,46.24
2022-11-18T00:27:51.150Z,46.39
2022-11-18T00:28:26.134Z,46.16
2022-11-18T00:28:58.461Z,46.05
2022-11-18T00:29:33.479Z,46.35
2022-11-18T00:30:06.897Z,46.44
2022-11-18T00:30:39.201Z,46.07
2022-11-18T00:31:16.295Z,46.17
2022-11-18T00:31:48.916Z,46.55
2022-11-18T00:32:21.233Z,46.45
2022-11-18T00:32:56.140Z,46.03
2022-11-18T00:33:28.426Z,46.36
2022-11-18T00:34:00.731Z,46.42
2022-11-18T00:34:35.745Z,46.36
2022-11-18T00:35:08.848Z,46.25
2022-11-18T00:35:41.222Z,46.15
2022-11-18T00:36:13.497Z,46.02
2022-11-18T00:36:49.577Z,46.24
2022-11-18T00:37:21.869Z,46.15
2022-11-18T00:37:54.193Z,46.58
2022-11-18T00:38:32.783Z,46.35
2022-11-18T00:39:05.082Z,46.09
2022-11-18T00:39:37.366Z,46.05
2022-11-18T00:40:13.681Z,46.26
2022-11-18T00:40:46.020Z,46.53
2022-11-18T00:41:18.350Z,46.15
2022-11-18T00:42:05.657Z,46.53
2022-11-18T00:42:53.874Z,46.37
2022-11-18T00:43:28.881Z,46.49
2022-11-18T00:44:05.059Z,46.07
2022-11-18T00:44:40.498Z,46.55
2022-11-18T00:45:12.820Z,46.26
2022-11-18T00:45:47.730Z,46.55
2022-11-18T00:46:20.005Z,46.28
2022-11-18T00:46:52.325Z,46.53
2022-11-18T00:47:27.431Z,46.12
2022-11-18T00:47:59.712Z,46.40
2022-11-18T00:48:32.079Z,46.21
2022-11-18T00:49:07.204Z,46.55
2022-11-18T00:49:39.472Z,46.19
2022-11-18T00:50:11.746Z,46.25
2022-11-18T00:50:46.710Z,46.17
2022-11-18T00:51:19.330Z,46.12
2022-11-18T00:51:51.761Z,46.50
2022-11-18T00:52:26.697Z,46.09
2022-11-18T00:52:58.991Z,46.16
2022-11-18T00:53:33.873Z,46.44
2022-11-18T00:54:09.163Z,46.33
2022-11-18T00:54:41.464Z,46.29
2022-11-18T00:55:13.735Z,46.31
2022-11-18T00:55:46.048Z,46.45
2022-11-18T00:56:20.959Z,46.16
2022-11-18T00:56:53.341Z,46.12
2022-11-18T00:57:25.609Z,46.26
2022-11-18T00:58:00.562Z,46.24
2022-11-18T00:58:32.911Z,46.43
2022-11-18T00:59:05.343Z,46.21
2022-11-18T00:59:40.360Z,46.26
2022-11-18T01:00:13.478Z,46.10
2022-11-18T01:00:48.797Z,46.57
2022-11-18T01:01:23.847Z,46.56
2022-11-18T01:01:56.269Z,46.43
2022-11-18T01:02:28.623Z,46.24
2022-11-18T01:03:03.609Z,46.60
2022-11-18T01:03:35.952Z,46.56
2022-11-18T01:04:08.262Z,46.48
2022-11-18T01:04:43.449Z,46.25
2022-11-18T01:05:15.898Z,46.48
2022-11-18T01:05:48.654Z,46.50
2022-11-18T01:06:23.804Z,46.31
2022-11-18T01:06:56.215Z,46.60
2022-11-18T01:07:28.608Z,46.27
2022-11-18T01:08:03.550Z,46.49
2022-11-18T01:08:38.447Z,46.33
2022-11-18T01:09:10.739Z,46.43
2022-11-18T01:09:45.665Z,46.39
2022-11-18T01:10:18.118Z,46.17
2022-11-18T01:10:50.949Z,46.38
2022-11-18T01:11:38.237Z,46.41
2022-11-18T01:12:26.193Z,46.20
2022-11-18T01:13:13.454Z,46.60
2022-11-18T01:13:48.408Z,46.36
2022-11-18T01:14:20.785Z,46.55
2022-11-18T01:14:53.092Z,46.19
2022-11-18T01:15:28.107Z,46.56
2022-11-18T01:16:00.417Z,46.59
2022-11-18T01:16:32.709Z,46.16
2022-11-18T01:17:07.730Z,46.59
2022-11-18T01:17:40.062Z,46.21
2022-11-18T01:18:12.444Z,46.59
2022-11-18T01:18:47.416Z,46.48
2022-11-18T01:19:20.050Z,46.19
2022-11-18T01:19:52.466Z,46.45
2022-11-18T01:20:27.384Z,46.43
2022-11-18T01:21:01.701Z,46.39
2022-11-18T01:21:34.222Z,46.24
2022-11-18T01:22:09.326Z,46.17
2022-11-18T01:22:41.758Z,46.37
2022-11-18T01:23:14.565Z,46.54
2022-11-18T01:23:49.545Z,46.51
2022-11-18T01:24:24.539Z,46.06
2022-11-18T01:24:56.861Z,46.13
2022-11-18T01:25:29.777Z,46.57
2022-11-18T01:26:08.157Z,46.08
2022-11-18T01:26:40.471Z,46.08
2022-11-18T01:27:12.799Z,46.06
2022-11-18T01:27:47.766Z,46.08
2022-11-18T01:28:23.538Z,46.10
2022-11-18T01:28:57.141Z,46.28
2022-11-18T01:29:32.090Z,46.13
2022-11-18T01:30:05.426Z,46.33
2022-11-18T01:30:39.611Z,46.24
2022-11-18T01:31:14.289Z,46.24
2022-11-18T01:32:22.309Z,46.32
2022-11-18T01:32:41.489Z,46.20
2022-11-18T01:33:16.630Z,46.35
2022-11-18T01:33:48.922Z,46.07
2022-11-18T01:34:21.226Z,46.26
2022-11-18T01:34:56.217Z,46.55
2022-11-18T01:35:28.526Z,46.49
2022-11-18T01:36:00.798Z,46.09
2022-11-18T01:36:35.701Z,46.27
2022-11-18T01:37:08.087Z,46.13
2022-11-18T01:37:40.734Z,46.16
2022-11-18T01:38:16.942Z,46.49
2022-11-18T01:38:52.425Z,46.37
2022-11-18T01:39:24.746Z,46.44
2022-11-18T01:39:59.748Z,46.13
2022-11-18T01:40:32.613Z,46.15
2022-11-18T01:41:05.073Z,46.53
2022-11-18T01:41:40.010Z,46.50
2022-11-18T01:42:15.320Z,46.31
2022-11-18T01:42:47.582Z,46.42
2022-11-18T01:43:23.981Z,46.21
2022-11-18T01:43:57.777Z,46.27
2022-11-18T01:44:57.309Z,46.50
2022-11-18T01:45:36.153Z,46.50
2022-11-18T01:46:08.478Z,46.31
2022-11-18T01:46:40.786Z,46.12
2022-11-18T01:47:13.510Z,46.21
2022-11-18T01:47:51.292Z,46.14
2022-11-18T01:48:26.842Z,46.43
2022-11-18T01:49:01.169Z,46.50
2022-11-18T01:49:36.106Z,46.51
2022-11-18T01:50:08.957Z,46.37
2022-11-18T01:50:47.496Z,46.17
2022-11-18T01:51:24.792Z,46.41
2022-11-18T01:51:58.229Z,46.51
2022-11-18T01:52:34.345Z,46.57
2022-11-18T01:53:09.165Z,46.07
2022-11-18T01:53:45.017Z,46.25
2022-11-18T01:54:24.393Z,46.23
2022-11-18T01:54:59.446Z,46.44
2022-11-18T01:55:34.433Z,46.41
2022-11-18T01:56:11.605Z,46.60
2022-11-18T01:56:45.610Z,46.57
2022-11-18T01:57:20.457Z,46.17
2022-11-18T01:57:59.625Z,46.14
2022-11-18T01:58:36.543Z,46.52
2022-11-18T01:59:11.925Z,46.09
2022-11-18T01:59:45.145Z,46.56
2022-11-18T02:00:20.648Z,46.53
2022-11-18T02:00:53.324Z,46.63
2022-11-18T02:01:25.740Z,46.48
2022-11-18T02:02:01.203Z,46.63
2022-11-18T02:02:35.439Z,46.39
2022-11-18T02:03:11.008Z,46.26
2022-11-18T02:03:44.020Z,46.45
2022-11-18T02:04:16.541Z,46.63
2022-11-18T02:04:50.521Z,46.14
2022-11-18T02:05:25.714Z,46.18
2022-11-18T02:05:59.527Z,46.19
2022-11-18T02:06:32.129Z,46.22
2022-11-18T02:07:07.155Z,46.26
2022-11-18T02:07:42.147Z,46.59
2022-11-18T02:08:14.925Z,46.36
2022-11-18T02:08:50.109Z,46.38
2022-11-18T02:09:25.006Z,46.58
2022-11-18T02:09:58.449Z,46.25
2022-11-18T02:10:33.436Z,46.17
2022-11-18T02:11:06.101Z,46.38
2022-11-18T02:11:54.831Z,46.52
2022-11-18T02:12:29.916Z,46.48
2022-11-18T02:13:02.317Z,46.62
2022-11-18T02:13:34.625Z,46.32
2022-11-18T02:14:11.887Z,46.65
2022-11-18T02:14:46.621Z,46.51
2022-11-18T02:15:24.341Z,46.56
2022-11-18T02:16:06.361Z,46.36
2022-11-18T02:16:50.446Z,46.24
2022-11-18T02:17:30.957Z,46.42
2022-11-18T02:18:10.649Z,46.30
2022-11-18T02:18:47.300Z,46.55
2022-11-18T02:19:38.139Z,46.26
2022-11-18T02:20:27.758Z,46.54
2022-11-18T02:21:12.630Z,46.67
2022-11-18T02:21:54.519Z,46.31
2022-11-18T02:22:47.434Z,46.57
2022-11-18T02:23:57.290Z,46.72
2022-11-18T02:24:41.620Z,46.66
2022-11-18T02:25:19.974Z,46.26
2022-11-18T02:26:21.788Z,46.28
2022-11-18T02:27:23.818Z,46.31
2022-11-18T02:28:13.128Z,46.71
2022-11-18T02:28:58.742Z,46.71
2022-11-18T02:29:33.770Z,46.49
2022-11-18T02:30:10.973Z,46.46
2022-11-18T02:30:48.713Z,46.19
2022-11-18T02:31:24.986Z,46.38
2022-11-18T02:32:03.813Z,46.28
2022-11-18T02:32:41.361Z,46.48
2022-11-18T02:33:18.892Z,46.58
2022-11-18T02:33:58.297Z,46.44
2022-11-18T02:34:40.783Z,46.17
2022-11-18T02:35:21.966Z,46.60
2022-11-18T02:35:57.562Z,46.19
2022-11-18T02:36:35.726Z,46.48
2022-11-18T02:37:15.923Z,46.26
2022-11-18T02:37:50.329Z,46.24
2022-11-18T02:38:25.285Z,46.48
2022-11-18T02:39:02.011Z,46.14
2022-11-18T02:39:41.174Z,46.55
2022-11-18T02:40:17.359Z,46.07
2022-11-18T02:40:52.559Z,46.56
2022-11-18T02:41:30.877Z,46.29
2022-11-18T02:42:05.219Z,46.07
2022-11-18T02:42:38.589Z,46.43
2022-11-18T02:43:16.246Z,46.27
2022-11-18T02:43:52.306Z,46.37
2022-11-18T02:44:28.201Z,46.46
2022-11-18T02:45:06.953Z,46.36
2022-11-18T02:45:41.526Z,46.21
2022-11-18T02:46:16.488Z,46.06
2022-11-18T02:46:55.254Z,46.21
2022-11-18T02:47:28.661Z,46.26
2022-11-18T02:48:07.128Z,46.30
2022-11-18T02:48:41.910Z,46.40
2022-11-18T02:49:17.839Z,46.33
2022-11-18T02:49:55.475Z,46.47
2022-11-18T02:50:29.481Z,46.29
2022-11-18T02:51:03.283Z,46.46
2022-11-18T02:51:36.865Z,46.01
2022-11-18T02:52:13.802Z,46.05
2022-11-18T02:52:47.069Z,46.37
2022-11-18T02:53:21.139Z,46.35
2022-11-18T02:53:58.472Z,46.02
2022-11-18T02:54:30.957Z,46.43
2022-11-18T02:55:04.329Z,46.38
2022-11-18T02:55:41.318Z,46.05
2022-11-18T02:56:14.117Z,46.02
2022-11-18T02:56:46.942Z,46.16
2022-11-18T02:57:20.177Z,46.46
2022-11-18T02:57:55.616Z,46.06
2022-11-18T02:58:27.912Z,46.31
2022-11-18T02:59:00.216Z,46.33
2022-11-18T02:59:37.782Z,46.54
2022-11-18T03:00:11.526Z,46.05
2022-11-18T03:00:45.335Z,46.15
2022-11-18T03:01:22.913Z,46.50
2022-11-18T03:01:55.298Z,46.49
2022-11-18T03:02:27.644Z,46.13
2022-11-18T03:03:02.814Z,46.59
2022-11-18T03:03:36.383Z,46.33
2022-11-18T03:04:08.701Z,46.09
2022-11-18T03:04:43.777Z,46.53
2022-11-18T03:05:22.267Z,46.56
2022-11-18T03:06:04.981Z,46.28
2022-11-18T03:06:41.644Z,46.55
2022-11-18T03:07:17.871Z,46.50
2022-11-18T03:07:52.637Z,46.57
2022-11-18T03:08:28.997Z,46.13
2022-11-18T03:09:08.019Z,46.21
2022-11-18T03:09:42.431Z,46.64
2022-11-18T03:10:17.562Z,46.53
2022-11-18T03:10:53.629Z,46.50
2022-11-18T03:11:29.045Z,46.62
2022-11-18T03:12:10.039Z,46.54
2022-11-18T03:12:44.955Z,46.29
2022-11-18T03:13:23.141Z,46.48
2022-11-18T03:14:09.533Z,46.31
2022-11-18T03:14:49.850Z,46.24
2022-11-18T03:15:31.714Z,46.26
2022-11-18T03:16:06.999Z,46.24
2022-11-18T03:16:46.034Z,46.55
2022-11-18T03:17:24.976Z,46.25
2022-11-18T03:18:03.645Z,46.64
2022-11-18T03:18:41.658Z,46.48
2022-11-18T03:19:23.746Z,46.44
2022-11-18T03:20:05.721Z,46.44
2022-11-18T03:20:39.601Z,46.31
2022-11-18T03:21:19.478Z,46.44
2022-11-18T03:21:57.918Z,46.49
2022-11-18T03:22:34.209Z,46.46
2022-11-18T03:23:11.689Z,46.52
2022-11-18T03:23:48.701Z,46.58
2022-11-18T03:24:23.500Z,46.14
2022-11-18T03:25:02.986Z,46.63
2022-11-18T03:25:38.481Z,46.60
2022-11-18T03:26:14.577Z,46.60
2022-11-18T03:26:53.788Z,46.49
2022-11-18T03:27:28.219Z,46.65
2022-11-18T03:28:06.078Z,46.48
2022-11-18T03:28:45.389Z,46.70
2022-11-18T03:29:21.210Z,46.63
2022-11-18T03:30:00.770Z,46.45
2022-11-18T03:30:36.322Z,46.69
2022-11-18T03:31:12.521Z,47.33
2022-11-18T03:31:47.505Z,47.19
2022-11-18T03:32:26.307Z,47.01
2022-11-18T03:33:01.216Z,46.96
2022-11-18T03:33:36.798Z,46.84
2022-11-18T03:34:16.035Z,46.42
2022-11-18T03:34:50.316Z,46.29
2022-11-18T03:35:25.154Z,46.17
2022-11-18T03:36:00.805Z,45.85
2022-11-18T03:36:35.387Z,46.11
2022-11-18T03:37:10.764Z,45.59
2022-11-18T03:37:46.093Z,45.87
2022-11-18T03:38:21.923Z,45.83
2022-11-18T03:38:57.513Z,45.53
2022-11-18T03:39:34.257Z,45.31
2022-11-18T03:40:11.953Z,45.10
2022-11-18T03:40:47.985Z,45.28
2022-11-18T03:41:23.804Z,45.46
2022-11-18T03:42:02.201Z,45.38
2022-11-18T03:42:37.433Z,44.87
2022-11-18T03:43:11.366Z,45.13
2022-11-18T03:43:49.960Z,45.25
2022-11-18T03:44:25.153Z,45.01
2022-11-18T03:45:02.402Z,44.73
2022-11-18T03:45:39.881Z,44.72
2022-11-18T03:46:15.802Z,45.11
2022-11-18T03:46:50.807Z,44.88
2022-11-18T03:47:29.261Z,44.78
2022-11-18T03:48:04.856Z,44.53
2022-11-18T03:48:41.689Z,44.89
2022-11-18T03:49:20.249Z,44.68
2022-11-18T03:49:56.630Z,44.58
2022-11-18T03:50:36.693Z,44.79
2022-11-18T03:51:11.127Z,44.58
2022-11-18T03:51:45.962Z,44.75
2022-11-18T03:52:24.000Z,44.70
2022-11-18T03:52:57.029Z,44.70
2022-11-18T03:53:32.152Z,44.70
2022-11-18T03:54:11.685Z,44.39
2022-11-18T03:54:45.713Z,44.41
2022-11-18T03:55:20.065Z,44.46
2022-11-18T03:55:54.917Z,44.37
2022-11-18T03:56:32.978Z,44.28
2022-11-18T03:57:12.001Z,44.21
2022-11-18T03:57:46.912Z,44.20
2022-11-18T03:58:25.409Z,44.60
2022-11-18T03:59:08.649Z,44.58
2022-11-18T03:59:45.117Z,44.19
2022-11-18T04:00:23.175Z,44.58
2022-11-18T04:00:59.791Z,44.55
2022-11-18T04:01:36.335Z,44.09
2022-11-18T04:02:15.582Z,44.31
2022-11-18T04:02:49.578Z,44.51
2022-11-18T04:03:21.892Z,44.31
2022-11-18T04:03:56.850Z,44.34
2022-11-18T04:04:29.363Z,44.38
2022-11-18T04:05:04.053Z,44.45
2022-11-18T04:05:39.205Z,44.13
2022-11-18T04:06:21.770Z,44.42
2022-11-18T04:07:00.529Z,44.16
2022-11-18T04:07:35.056Z,44.17
2022-11-18T04:08:13.573Z,44.29
2022-11-18T04:08:49.490Z,44.13
2022-11-18T04:09:26.022Z,44.30
2022-11-18T04:10:05.876Z,44.36
2022-11-18T04:10:41.016Z,44.22
2022-11-18T04:11:36.341Z,44.30
2022-11-18T04:12:16.486Z,44.55
2022-11-18T04:12:51.064Z,44.31
2022-11-18T04:13:25.966Z,44.07
2022-11-18T04:14:01.782Z,44.05
2022-11-18T04:14:35.018Z,44.50
2022-11-18T04:15:08.419Z,44.55
2022-11-18T04:15:46.587Z,44.26
2022-11-18T04:16:18.855Z,44.36
2022-11-18T04:16:52.741Z,44.14
2022-11-18T04:17:28.496Z,44.28
2022-11-18T04:18:03.456Z,44.43
2022-11-18T04:18:35.817Z,44.49
2022-11-18T04:19:08.130Z,44.34
2022-11-18T04:19:43.398Z,44.40
2022-11-18T04:20:18.593Z,44.28
2022-11-18T04:20:50.919Z,44.14
2022-11-18T04:21:25.904Z,44.50
2022-11-18T04:21:58.198Z,44.53
2022-11-18T04:22:30.499Z,44.05
2022-11-18T04:23:05.480Z,44.50
2022-11-18T04:23:37.825Z,44.30
2022-11-18T04:24:10.279Z,44.14
2022-11-18T04:24:45.266Z,44.14
2022-11-18T04:25:17.581Z,44.53
2022-11-18T04:25:49.888Z,44.30
2022-11-18T04:26:24.835Z,44.39
2022-11-18T04:26:57.250Z,44.58
2022-11-18T04:27:29.523Z,44.56
2022-11-18T04:28:04.510Z,44.55
2022-11-18T04:28:36.822Z,44.23
2022-11-18T04:29:09.464Z,44.09
2022-11-18T04:29:44.414Z,44.64
2022-11-18T04:30:17.685Z,44.09
2022-11-18T04:30:52.649Z,44.29
2022-11-18T04:31:25.010Z,44.38
2022-11-18T04:31:59.937Z,44.12
2022-11-18T04:32:32.285Z,44.17
2022-11-18T04:33:05.335Z,44.57
2022-11-18T04:33:40.361Z,44.62
2022-11-18T04:34:12.706Z,44.63
2022-11-18T04:34:44.992Z,44.50
2022-11-18T04:35:20.110Z,44.16
2022-11-18T04:35:52.423Z,44.12
2022-11-18T04:36:24.723Z,44.46
2022-11-18T04:36:57.285Z,44.31
2022-11-18T04:37:32.358Z,44.36
2022-11-18T04:38:05.201Z,44.40
2022-11-18T04:38:37.563Z,44.38
2022-11-18T04:39:12.737Z,44.16
2022-11-18T04:39:45.073Z,44.50
2022-11-18T04:40:17.605Z,44.53
2022-11-18T04:40:52.618Z,44.24
2022-11-18T04:41:44.942Z,44.43
2022-11-18T04:42:17.305Z,44.55
2022-11-18T04:42:52.235Z,44.21
2022-11-18T04:43:24.541Z,44.46
2022-11-18T04:43:56.881Z,44.49
2022-11-18T04:44:33.336Z,44.59
2022-11-18T04:45:07.213Z,44.47
2022-11-18T04:45:39.540Z,44.60
2022-11-18T04:46:17.141Z,44.37
2022-11-18T04:46:49.777Z,44.26
2022-11-18T04:47:22.150Z,44.46
2022-11-18T04:48:03.116Z,44.42
2022-11-18T04:48:36.102Z,44.22
2022-11-18T04:49:08.515Z,44.44
2022-11-18T04:49:43.605Z,44.55
2022-11-18T04:50:16.317Z,44.41
2022-11-18T04:50:48.637Z,44.65
2022-11-18T04:51:20.996Z,44.30
2022-11-18T04:51:56.280Z,44.52
2022-11-18T04:52:28.594Z,44.23
2022-11-18T04:53:00.938Z,44.65
2022-11-18T04:53:35.838Z,44.41
2022-11-18T04:54:08.297Z,44.24
2022-11-18T04:54:40.866Z,44.48
2022-11-18T04:55:15.825Z,44.60
2022-11-18T04:55:48.137Z,44.62
2022-11-18T04:56:20.428Z,44.46
2022-11-18T04:56:53.227Z,44.38
2022-11-18T04:57:28.162Z,44.58
2022-11-18T04:58:00.518Z,44.36
2022-11-18T04:58:33.871Z,44.45
2022-11-18T04:59:06.726Z,44.46
2022-11-18T04:59:41.881Z,44.18
2022-11-18T05:00:14.900Z,44.36
2022-11-18T05:00:47.546Z,44.53
2022-11-18T05:01:25.176Z,44.53
2022-11-18T05:01:58.069Z,44.40
2022-11-18T05:02:33.003Z,44.55
2022-11-18T05:03:05.355Z,44.22
2022-11-18T05:03:37.680Z,44.19
2022-11-18T05:04:13.284Z,44.70
2022-11-18T05:04:48.232Z,44.19
2022-11-18T05:05:20.567Z,44.57
2022-11-18T05:05:52.903Z,44.52
2022-11-18T05:06:25.275Z,44.09
2022-11-18T05:07:00.777Z,44.34
2022-11-18T05:07:33.228Z,44.46
2022-11-18T05:08:06.267Z,44.40
2022-11-18T05:08:41.181Z,44.09
2022-11-18T05:09:13.830Z,44.36
2022-11-18T05:09:46.101Z,44.31
2022-11-18T05:10:21.141Z,44.28
2022-11-18T05:11:13.991Z,44.09
2022-11-18T05:12:01.558Z,44.09
2022-11-18T05:12:48.876Z,44.02
2022-11-18T05:13:21.166Z,44.42
2022-11-18T05:13:53.703Z,44.51
2022-11-18T05:14:26.223Z,44.49
2022-11-18T05:15:01.159Z,44.36
2022-11-18T05:15:33.505Z,44.30
2022-11-18T05:16:06.571Z,44.42
2022-11-18T05:16:44.853Z,44.21
2022-11-18T05:17:17.210Z,44.21
2022-11-18T05:17:52.313Z,44.34
2022-11-18T05:18:24.585Z,44.64
2022-11-18T05:18:56.913Z,44.35
2022-11-18T05:19:29.197Z,44.13
2022-11-18T05:20:04.141Z,44.29
2022-11-18T05:20:41.606Z,44.20
2022-11-18T05:21:14.216Z,44.33
2022-11-18T05:21:49.201Z,44.14
2022-11-18T05:22:21.498Z,44.36
2022-11-18T05:22:53.833Z,44.58
2022-11-18T05:23:28.754Z,44.27
2022-11-18T05:24:01.364Z,44.51
2022-11-18T05:24:33.678Z,44.47
2022-11-18T05:25:10.518Z,44.33
2022-11-18T05:25:42.924Z,44.24
2022-11-18T05:26:15.218Z,44.50
2022-11-18T05:26:48.338Z,44.09
2022-11-18T05:27:23.258Z,44.54
2022-11-18T05:27:55.532Z,44.12
2022-11-18T05:28:27.821Z,44.50
2022-11-18T05:29:02.794Z,44.29
2022-11-18T05:29:35.094Z,44.29
2022-11-18T05:30:11.308Z,44.49
2022-11-18T05:30:43.606Z,44.34
2022-11-18T05:31:16.929Z,44.46
2022-11-18T05:31:51.967Z,44.41
2022-11-18T05:32:26.889Z,44.12
2022-11-18T05:32:59.196Z,44.12
2022-11-18T05:33:31.645Z,44.60
2022-11-18T05:34:03.972Z,44.34
2022-11-18T05:34:39.005Z,44.40
2022-11-18T05:35:11.317Z,44.50
2022-11-18T05:35:43.631Z,44.19
2022-11-18T05:36:20.306Z,44.50
2022-11-18T05:36:52.582Z,44.34
2022-11-18T05:37:27.537Z,44.55
2022-11-18T05:38:01.885Z,44.16
2022-11-18T05:38:34.410Z,44.36
2022-11-18T05:39:06.769Z,44.36
2022-11-18T05:39:41.849Z,44.53
2022-11-18T05:40:14.302Z,44.33
2022-11-18T05:40:46.917Z,44.14
2022-11-18T05:41:34.869Z,44.59
2022-11-18T05:42:22.189Z,44.34
2022-11-18T05:43:09.453Z,44.09
2022-11-18T05:43:44.390Z,44.04
2022-11-18T05:44:16.903Z,44.32
2022-11-18T05:44:56.174Z,44.17
2022-11-18T05:45:33.049Z,44.11
2022-11-18T05:46:05.622Z,44.36
2022-11-18T05:46:37.961Z,44.35
2022-11-18T05:47:15.802Z,44.48
2022-11-18T05:48:00.269Z,44.26
2022-11-18T05:48:32.584Z,44.59
2022-11-18T05:49:07.832Z,44.14
2022-11-18T05:49:40.116Z,44.56
2022-11-18T05:50:14.275Z,44.45
2022-11-18T05:50:53.093Z,44.51
2022-11-18T05:51:25.441Z,44.27
2022-11-18T05:51:57.747Z,44.24
2022-11-18T05:52:32.686Z,44.28
2022-11-18T05:53:05.394Z,44.22
2022-11-18T05:53:37.694Z,44.39
2022-11-18T05:54:13.424Z,44.14
2022-11-18T05:54:49.789Z,44.21
2022-11-18T05:55:24.249Z,44.29
2022-11-18T05:56:03.724Z,44.53
2022-11-18T05:56:37.385Z,44.58
2022-11-18T05:57:09.669Z,44.22
2022-11-18T05:57:44.594Z,44.24
2022-11-18T05:58:16.982Z,44.60
2022-11-18T05:58:49.258Z,44.64
2022-11-18T05:59:24.613Z,44.41
2022-11-18T05:59:56.891Z,44.19
2022-11-18T06:00:29.957Z,44.22
2022-11-18T06:01:06.933Z,43.98
2022-11-18T06:01:46.462Z,43.71
2022-11-18T06:02:23.249Z,43.72
2022-11-18T06:02:58.777Z,43.82
2022-11-18T06:03:32.491Z,43.90
2022-11-18T06:04:10.029Z,44.12
2022-11-18T06:04:47.430Z,44.46
2022-11-18T06:05:21.669Z,44.48
2022-11-18T06:05:54.874Z,44.26
2022-11-18T06:06:30.166Z,44.76
2022-11-18T06:07:06.542Z,44.77
2022-11-18T06:07:43.344Z,44.90
2022-11-18T06:08:17.450Z,45.03
2022-11-18T06:08:56.199Z,45.08
2022-11-18T06:09:31.755Z,44.92
2022-11-18T06:10:06.351Z,44.87
2022-11-18T06:10:42.238Z,45.32
2022-11-18T06:11:16.902Z,45.03
2022-11-18T06:11:51.658Z,45.08
2022-11-18T06:12:28.787Z,45.52
2022-11-18T06:13:03.450Z,45.28
2022-11-18T06:13:39.542Z,45.65
2022-11-18T06:14:16.437Z,45.26
2022-11-18T06:14:51.866Z,45.68
2022-11-18T06:15:26.384Z,45.55
2022-11-18T06:16:01.319Z,45.67
2022-11-18T06:16:39.482Z,45.75
2022-11-18T06:17:19.093Z,45.83
2022-11-18T06:17:56.522Z,45.84
2022-11-18T06:18:30.142Z,45.90
2022-11-18T06:19:05.936Z,45.51
2022-11-18T06:19:38.510Z,45.93
2022-11-18T06:20:14.013Z,45.85
2022-11-18T06:20:46.702Z,45.91
2022-11-18T06:21:18.989Z,45.78
2022-11-18T06:21:54.096Z,45.76
2022-11-18T06:22:26.761Z,45.76
2022-11-18T06:22:59.165Z,45.90
2022-11-18T06:23:38.206Z,45.54
2022-11-18T06:24:10.696Z,46.00
2022-11-18T06:24:46.017Z,45.91
2022-11-18T06:25:18.609Z,45.88
2022-11-18T06:25:50.924Z,46.02
2022-11-18T06:26:26.077Z,46.01
2022-11-18T06:26:59.210Z,45.57
2022-11-18T06:27:31.673Z,46.00
2022-11-18T06:28:06.817Z,45.83
2022-11-18T06:28:40.193Z,45.89
2022-11-18T06:29:19.491Z,45.86
2022-11-18T06:29:53.917Z,46.04
2022-11-18T06:30:26.219Z,45.66
2022-11-18T06:31:01.310Z,46.05
2022-11-18T06:31:33.765Z,45.98
2022-11-18T06:32:06.300Z,45.75
2022-11-18T06:32:41.483Z,45.71
2022-11-18T06:33:16.822Z,46.07
2022-11-18T06:33:49.218Z,46.04
2022-11-18T06:34:24.554Z,45.70
2022-11-18T06:34:57.037Z,45.91
2022-11-18T06:35:29.508Z,46.02
2022-11-18T06:36:04.683Z,46.10
2022-11-18T06:36:37.046Z,46.09
2022-11-18T06:37:15.367Z,45.97
2022-11-18T06:37:50.579Z,45.97
2022-11-18T06:38:24.681Z,45.78
2022-11-18T06:38:57.158Z,46.21
2022-11-18T06:39:32.599Z,46.03
2022-11-18T06:40:05.854Z,45.97
2022-11-18T06:40:38.498Z,45.74
2022-11-18T06:41:10.781Z,46.00
2022-11-18T06:41:45.921Z,45.81
2022-11-18T06:42:33.018Z,46.20
2022-11-18T06:43:35.912Z,46.07
2022-11-18T06:44:08.341Z,46.22
2022-11-18T06:44:40.683Z,46.06
2022-11-18T06:45:15.894Z,46.13
2022-11-18T06:46:07.767Z,45.75
2022-11-18T06:46:56.804Z,46.16
2022-11-18T06:47:29.588Z,45.96
2022-11-18T06:48:04.705Z,46.14
2022-11-18T06:48:39.587Z,45.74
2022-11-18T06:49:11.950Z,45.88
2022-11-18T06:49:46.878Z,45.92
2022-11-18T06:50:19.439Z,45.80
2022-11-18T06:50:51.709Z,45.76
2022-11-18T06:51:27.234Z,46.19
2022-11-18T06:51:59.561Z,45.84
2022-11-18T06:52:31.940Z,45.90
2022-11-18T06:53:06.942Z,45.84
2022-11-18T06:53:39.298Z,46.12
2022-11-18T06:54:11.677Z,45.99
2022-11-18T06:54:46.626Z,46.19
2022-11-18T06:55:19.049Z,46.36
2022-11-18T06:55:51.422Z,46.13
2022-11-18T06:56:26.430Z,46.34
2022-11-18T06:56:58.789Z,45.97
2022-11-18T06:57:31.121Z,46.34
2022-11-18T06:58:06.069Z,46.29
2022-11-18T06:58:38.797Z,45.86
2022-11-18T06:59:11.145Z,46.06
2022-11-18T06:59:46.036Z,46.09
2022-11-18T07:00:19.230Z,46.32
2022-11-18T07:00:51.667Z,46.02
2022-11-18T07:01:28.175Z,45.90
2022-11-18T07:02:00.601Z,46.12
2022-11-18T07:02:33.154Z,46.32
2022-11-18T07:03:08.115Z,46.16
2022-11-18T07:03:44.319Z,46.06
2022-11-18T07:04:19.410Z,46.07
2022-11-18T07:04:51.714Z,46.29
2022-11-18T07:05:23.982Z,46.27
2022-11-18T07:05:59.148Z,46.17
2022-11-18T07:06:32.887Z,45.87
2022-11-18T07:07:07.936Z,46.01
2022-11-18T07:07:42.201Z,46.30
2022-11-18T07:08:14.919Z,46.05
2022-11-18T07:08:50.065Z,46.31
2022-11-18T07:09:22.336Z,45.95
2022-11-18T07:09:57.241Z,46.31
2022-11-18T07:10:29.501Z,46.35
2022-11-18T07:11:01.874Z,46.00
2022-11-18T07:11:38.403Z,46.09
2022-11-18T07:12:10.782Z,46.35
2022-11-18T07:12:45.701Z,46.05
2022-11-18T07:13:18.041Z,46.43
2022-11-18T07:13:50.749Z,46.36
2022-11-18T07:14:25.697Z,45.97
2022-11-18T07:14:58.002Z,46.05
2022-11-18T07:15:30.356Z,46.30
2022-11-18T07:16:07.581Z,46.36
2022-11-18T07:16:39.922Z,46.02
2022-11-18T07:17:15.109Z,46.39
2022-11-18T07:17:47.373Z,46.24
2022-11-18T07:18:19.671Z,46.32
2022-11-18T07:18:58.205Z,46.32
2022-11-18T07:19:35.627Z,46.00
2022-11-18T07:20:12.157Z,46.29
2022-11-18T07:20:44.467Z,46.43
2022-11-18T07:21:18.742Z,46.29
2022-11-18T07:21:53.709Z,46.25
2022-11-18T07:22:26.039Z,46.19
2022-11-18T07:22:58.341Z,46.05
2022-11-18T07:23:33.721Z,46.46
2022-11-18T07:24:07.243Z,46.39
2022-11-18T07:24:43.527Z,46.25
2022-11-18T07:25:16.085Z,46.07
2022-11-18T07:25:48.420Z,46.50
2022-11-18T07:26:23.830Z,46.32
2022-11-18T07:26:56.155Z,46.02
2022-11-18T07:27:28.417Z,46.45
2022-11-18T07:28:03.406Z,46.50
2022-11-18T07:28:35.736Z,46.04
2022-11-18T07:29:10.802Z,46.08
2022-11-18T07:29:43.179Z,46.03
2022-11-18T07:30:15.817Z,46.50
2022-11-18T07:30:50.790Z,46.17
2022-11-18T07:31:23.101Z,46.29
2022-11-18T07:31:58.117Z,46.30
2022-11-18T07:32:30.435Z,46.31
2022-11-18T07:33:02.745Z,46.29
2022-11-18T07:33:38.378Z,46.43
2022-11-18T07:34:13.890Z,46.10
2022-11-18T07:34:48.878Z,46.00
2022-11-18T07:35:21.210Z,46.07